Time;durP1;ratioP1;P1;durP2;ratioP2;P2;SDS_P1;SDS_P2;PMS_P1;PMS_P2;Temp;Humidity;BMP_temperature;BMP_pressure;BME280_temperature;BME280_humidity;BME280_pressure;Samples;Min_cycle;Max_cycle;Signal;HPM_P1;HPM_P2
2022/05/23 00:01:43;;;;;;;4.45;1.73;;;14.90;99.90;;;;;;5052909;28;20295;-57
2022/05/23 00:04:09;;;;;;;8.52;1.95;;;14.90;99.90;;;;;;5053299;28;20187;-57
2022/05/23 00:06:35;;;;;;;4.82;1.60;;;14.90;99.90;;;;;;5053072;28;20272;-58
2022/05/23 00:09:01;;;;;;;6.65;2.30;;;14.90;99.90;;;;;;5053190;28;20162;-57
2022/05/23 00:11:26;;;;;;;2.72;1.48;;;14.90;99.90;;;;;;5053302;28;20228;-57
2022/05/23 00:13:52;;;;;;;7.45;2.08;;;14.90;99.90;;;;;;5035171;28;20512;-57
2022/05/23 00:16:21;;;;;;;4.15;1.58;;;14.80;99.90;;;;;;5052858;28;20173;-57
2022/05/23 00:18:47;;;;;;;6.40;1.80;;;14.70;99.90;;;;;;5052857;28;20180;-59
2022/05/23 00:21:14;;;;;;;5.25;1.83;;;14.70;99.90;;;;;;5053123;28;20184;-59
2022/05/23 00:23:39;;;;;;;6.68;1.73;;;14.70;99.90;;;;;;5053026;28;20177;-59
2022/05/23 00:26:05;;;;;;;13.52;2.83;;;14.60;99.90;;;;;;5052937;28;20177;-63
2022/05/23 00:28:31;;;;;;;6.70;2.13;;;14.60;99.90;;;;;;5052908;28;20558;-59
2022/05/23 00:30:56;;;;;;;8.27;2.42;;;14.60;99.90;;;;;;5052849;28;20555;-60
2022/05/23 00:36:06;;;;;;;5.70;2.22;;;14.50;99.90;;;;;;5053144;28;20252;-59
2022/05/23 00:38:33;;;;;;;9.05;2.45;;;14.60;99.90;;;;;;5052680;28;20260;-60
2022/05/23 00:44:08;;;;;;;7.05;2.17;;;14.60;99.90;;;;;;5052738;28;20543;-60
2022/05/23 00:46:34;;;;;;;10.05;1.95;;;14.60;99.90;;;;;;5052618;28;20244;-60
2022/05/23 00:49:04;;;;;;;5.20;2.00;;;14.50;99.90;;;;;;5052562;28;20574;-60
2022/05/23 00:51:31;;;;;;;3.25;1.60;;;14.60;99.90;;;;;;5052391;28;20197;-60
2022/05/23 00:54:00;;;;;;;6.88;1.73;;;14.60;99.90;;;;;;5052546;28;20170;-60
2022/05/23 00:56:38;;;;;;;6.68;1.75;;;14.50;99.90;;;;;;5052496;28;20169;-60
2022/05/23 00:59:05;;;;;;;5.78;1.73;;;14.50;99.90;;;;;;5052252;28;20270;-60
2022/05/23 01:01:35;;;;;;;5.70;1.60;;;14.50;99.90;;;;;;5052433;28;20203;-60
2022/05/23 01:04:02;;;;;;;5.47;1.33;;;14.40;99.90;;;;;;5052203;28;20176;-60
2022/05/23 01:06:28;;;;;;;7.88;1.80;;;14.40;99.90;;;;;;5051794;28;20180;-60
2022/05/23 01:08:56;;;;;;;4.97;1.50;;;14.40;99.90;;;;;;5052071;28;20203;-59
2022/05/23 01:11:23;;;;;;;5.88;1.45;;;14.30;99.90;;;;;;5034034;28;20300;-59
2022/05/23 01:13:49;;;;;;;5.57;1.48;;;14.40;99.90;;;;;;5052173;28;20165;-59
2022/05/23 01:16:15;;;;;;;9.27;1.65;;;14.30;99.90;;;;;;5052259;28;20223;-59
2022/05/23 01:18:40;;;;;;;4.53;1.27;;;14.30;99.90;;;;;;5051997;28;20634;-60
2022/05/23 01:21:12;;;;;;;10.48;1.65;;;14.20;99.90;;;;;;5052136;28;20543;-60
2022/05/23 01:23:52;;;;;;;6.93;1.80;;;14.10;99.90;;;;;;5051892;28;20453;-60
2022/05/23 01:26:18;;;;;;;5.55;1.10;;;14.20;99.90;;;;;;5051833;28;20631;-60
2022/05/23 01:28:44;;;;;;;4.90;1.48;;;14.10;99.90;;;;;;5051826;28;20177;-60
2022/05/23 01:31:12;;;;;;;8.95;1.55;;;14.20;99.90;;;;;;5051158;28;20334;-60
2022/05/23 01:33:38;;;;;;;5.43;1.67;;;14.20;99.90;;;;;;5051611;28;20207;-60
2022/05/23 01:36:05;;;;;;;6.95;1.60;;;14.10;99.90;;;;;;5051630;28;20635;-60
2022/05/23 01:38:30;;;;;;;4.65;1.52;;;14.20;99.90;;;;;;5051688;28;20226;-62
2022/05/23 01:40:57;;;;;;;6.00;1.60;;;14.10;99.90;;;;;;5051598;28;20563;-64
2022/05/23 01:43:23;;;;;;;7.07;1.70;;;14.10;99.90;;;;;;5051730;28;20291;-59
2022/05/23 01:45:49;;;;;;;9.00;1.63;;;14.10;99.90;;;;;;5051445;28;20169;-60
2022/05/23 01:48:15;;;;;;;7.80;1.45;;;14.20;99.90;;;;;;5051471;28;20258;-60
2022/05/23 01:50:41;;;;;;;9.77;1.63;;;14.10;99.90;;;;;;5051414;28;20219;-60
2022/05/23 01:53:06;;;;;;;7.75;1.90;;;14.10;99.90;;;;;;5033357;28;20213;-59
2022/05/23 01:55:34;;;;;;;9.68;1.98;;;14.10;99.90;;;;;;5051408;28;20176;-60
2022/05/23 01:57:59;;;;;;;8.93;1.73;;;14.20;99.90;;;;;;5050949;28;20226;-59
2022/05/23 02:03:09;;;;;;;6.40;1.90;;;14.10;99.90;;;;;;5051218;28;20195;-58
2022/05/23 02:05:36;;;;;;;7.70;2.00;;;14.10;99.90;;;;;;5050636;28;20174;-58
2022/05/23 02:08:02;;;;;;;10.93;2.28;;;14.10;99.90;;;;;;5051314;28;20165;-59
2022/05/23 02:10:29;;;;;;;5.50;1.80;;;14.10;99.90;;;;;;5050844;28;20178;-60
2022/05/23 02:12:56;;;;;;;7.95;2.20;;;14.10;99.90;;;;;;5051006;28;20270;-59
2022/05/23 02:15:22;;;;;;;13.27;2.33;;;14.10;99.90;;;;;;5051066;28;20691;-59
2022/05/23 02:17:47;;;;;;;8.60;2.00;;;14.10;99.90;;;;;;5051058;28;20307;-59
2022/05/23 02:20:14;;;;;;;7.18;1.90;;;14.10;99.90;;;;;;5050894;28;20172;-58
2022/05/23 02:22:40;;;;;;;7.78;2.05;;;14.10;99.90;;;;;;5050867;28;20211;-59
2022/05/23 02:25:07;;;;;;;12.00;2.67;;;14.10;99.90;;;;;;5050967;28;20635;-59
2022/05/23 02:27:34;;;;;;;7.45;1.85;;;14.10;99.90;;;;;;5050920;28;20169;-59
2022/05/23 02:30:00;;;;;;;6.93;1.85;;;14.10;99.90;;;;;;5050916;28;20166;-59
2022/05/23 02:32:26;;;;;;;11.30;1.90;;;14.10;99.90;;;;;;5050718;28;20397;-59
2022/05/23 02:34:52;;;;;;;6.93;1.85;;;14.10;99.90;;;;;;5050653;28;20252;-58
2022/05/23 02:37:17;;;;;;;10.73;2.00;;;14.10;99.90;;;;;;5050753;28;20204;-59
2022/05/23 02:39:43;;;;;;;7.40;1.92;;;14.10;99.90;;;;;;5050751;28;20165;-59
2022/05/23 02:42:09;;;;;;;8.48;2.05;;;14.00;99.90;;;;;;5050807;28;20165;-59
2022/05/23 02:44:35;;;;;;;7.53;2.10;;;14.00;99.90;;;;;;5054859;28;20165;-59
2022/05/23 02:47:02;;;;;;;11.88;2.47;;;14.10;99.90;;;;;;5054912;28;20180;-59
2022/05/23 02:49:27;;;;;;;11.73;2.38;;;14.00;99.90;;;;;;5054723;28;20248;-58
2022/05/23 02:51:53;;;;;;;12.48;2.40;;;14.00;99.90;;;;;;5054606;28;20296;-58
2022/05/23 02:54:19;;;;;;;13.40;2.92;;;14.30;99.90;;;;;;5054639;28;20658;-58
2022/05/23 02:56:45;;;;;;;9.73;2.20;;;14.10;99.90;;;;;;5054482;28;20223;-58
2022/05/23 02:59:11;;;;;;;12.30;2.33;;;14.10;99.90;;;;;;5054357;28;20220;-58
2022/05/23 03:03:01;;;;;;;12.70;2.35;;;14.10;99.90;;;;;;5054432;28;20662;-58
2022/05/23 03:04:24;;;;;;;8.23;2.20;;;14.10;99.90;;;;;;5054296;28;20201;-57
2022/05/23 03:06:50;;;;;;;9.32;2.40;;;14.10;99.90;;;;;;5054390;28;20173;-58
2022/05/23 03:09:15;;;;;;;11.30;2.25;;;14.10;99.90;;;;;;5054275;28;20177;-57
2022/05/23 03:11:41;;;;;;;11.85;2.50;;;14.10;99.90;;;;;;5054255;28;20215;-58
2022/05/23 03:14:07;;;;;;;15.43;2.50;;;14.10;99.90;;;;;;5054232;28;20181;-58
2022/05/23 03:16:32;;;;;;;9.52;2.80;;;14.10;99.90;;;;;;5054139;28;20260;-57
2022/05/23 03:18:58;;;;;;;9.60;2.33;;;14.00;99.90;;;;;;5054131;28;20173;-58
2022/05/23 03:27:01;;;;;;;13.80;2.47;;;14.10;99.90;;;;;;5054001;28;20674;-58
2022/05/23 03:29:28;;;;;;;11.88;2.28;;;14.00;99.90;;;;;;5054062;28;20635;-58
2022/05/23 03:31:54;;;;;;;11.93;2.17;;;14.00;99.90;;;;;;5053928;28;20317;-58
2022/05/23 03:34:20;;;;;;;6.93;2.13;;;14.00;99.90;;;;;;5053877;28;20282;-59
2022/05/23 03:36:46;;;;;;;16.25;2.08;;;14.00;99.90;;;;;;5053785;28;20182;-59
2022/05/23 03:39:12;;;;;;;8.68;1.85;;;14.00;99.90;;;;;;5053828;28;20165;-58
2022/05/23 03:41:38;;;;;;;11.23;2.40;;;13.90;99.90;;;;;;5053624;28;20312;-58
2022/05/23 03:44:07;;;;;;;15.55;1.95;;;14.00;99.90;;;;;;5053861;28;20196;-58
2022/05/23 03:46:34;;;;;;;15.43;2.90;;;14.00;99.90;;;;;;5053924;28;20205;-59
2022/05/23 03:49:01;;;;;;;12.68;2.83;;;13.90;99.90;;;;;;5053704;28;20230;-58
2022/05/23 03:51:28;;;;;;;14.10;2.80;;;13.90;99.90;;;;;;5053526;28;20208;-58
2022/05/23 03:53:53;;;;;;;11.82;2.25;;;14.00;99.90;;;;;;5052998;28;20173;-58
2022/05/23 03:56:19;;;;;;;11.65;2.53;;;14.00;99.90;;;;;;5053424;28;20173;-58
2022/05/23 03:58:45;;;;;;;12.50;2.22;;;14.00;99.90;;;;;;5053342;28;20827;-58
2022/05/23 04:01:16;;;;;;;10.70;2.60;;;14.00;99.90;;;;;;5053377;28;20542;-59
2022/05/23 04:03:42;;;;;;;17.40;2.50;;;14.00;99.90;;;;;;5053523;28;20177;-58
2022/05/23 04:06:08;;;;;;;17.63;2.72;;;14.00;99.90;;;;;;5053146;28;20173;-59
2022/05/23 04:08:35;;;;;;;13.23;2.15;;;14.00;99.90;;;;;;5053202;28;20166;-58
2022/05/23 04:11:02;;;;;;;11.48;2.65;;;13.90;99.90;;;;;;5053098;28;20177;-59
2022/05/23 04:13:28;;;;;;;10.65;3.05;;;13.90;99.90;;;;;;5053233;28;20260;-59
2022/05/23 04:15:54;;;;;;;13.27;2.03;;;14.00;99.90;;;;;;5053120;28;20179;-60
2022/05/23 04:18:20;;;;;;;11.20;2.33;;;13.90;99.90;;;;;;5053149;28;20213;-59
2022/05/23 04:20:46;;;;;;;9.52;2.05;;;13.90;99.90;;;;;;5053142;28;20173;-60
2022/05/23 04:23:12;;;;;;;13.52;2.42;;;13.90;99.90;;;;;;5053020;28;20176;-59
2022/05/23 04:25:44;;;;;;;10.48;2.17;;;13.80;99.90;;;;;;5053048;28;20170;-59
2022/05/23 04:28:11;;;;;;;16.10;2.58;;;13.80;99.90;;;;;;5053151;28;20169;-59
2022/05/23 04:30:37;;;;;;;13.70;2.40;;;13.80;99.90;;;;;;5052932;28;20175;-59
2022/05/23 04:35:50;;;;;;;12.00;2.25;;;13.80;99.90;;;;;;5053120;28;20196;-60
2022/05/23 04:38:16;;;;;;;11.77;1.90;;;13.80;99.90;;;;;;5052997;28;20248;-59
2022/05/23 04:40:42;;;;;;;13.65;2.20;;;13.80;99.90;;;;;;5052834;28;20173;-59
2022/05/23 04:43:08;;;;;;;16.05;3.17;;;13.80;99.90;;;;;;5052679;28;20169;-59
2022/05/23 04:45:34;;;;;;;14.63;2.80;;;13.80;99.90;;;;;;5052613;28;20663;-59
2022/05/23 04:50:43;;;;;;;16.45;2.75;;;13.70;99.90;;;;;;5052634;28;20192;-59
2022/05/23 04:53:09;;;;;;;16.58;3.35;;;13.70;99.90;;;;;;5052488;28;20205;-59
2022/05/23 04:55:37;;;;;;;11.70;2.58;;;13.70;99.90;;;;;;5052456;28;20196;-59
2022/05/23 04:58:03;;;;;;;19.17;3.40;;;13.60;99.90;;;;;;5052167;28;20177;-59
2022/05/23 05:00:29;;;;;;;26.70;3.40;;;13.60;99.90;;;;;;5052429;28;20812;-59
2022/05/23 05:02:59;;;;;;;21.60;4.13;;;13.60;99.90;;;;;;5052209;28;20224;-59
2022/05/23 05:05:27;;;;;;;16.30;3.63;;;13.60;99.90;;;;;;5051465;28;20223;-61
2022/05/23 05:07:53;;;;;;;11.60;3.28;;;13.60;99.90;;;;;;5052243;28;20647;-59
2022/05/23 05:10:21;;;;;;;16.50;3.53;;;13.60;99.90;;;;;;5052142;28;20654;-59
2022/05/23 05:12:48;;;;;;;15.32;3.35;;;13.60;99.90;;;;;;5052129;28;20300;-59
2022/05/23 05:15:13;;;;;;;21.85;3.78;;;13.60;99.90;;;;;;5052022;28;20204;-59
2022/05/23 05:17:39;;;;;;;17.13;3.47;;;13.70;99.90;;;;;;5052064;28;20662;-59
2022/05/23 05:20:07;;;;;;;18.25;3.33;;;13.70;99.90;;;;;;5052060;28;20169;-59
2022/05/23 05:22:37;;;;;;;21.88;3.63;;;13.80;99.90;;;;;;5051980;28;20173;-60
2022/05/23 05:25:04;;;;;;;25.75;4.18;;;13.80;99.90;;;;;;5052102;28;20173;-59
2022/05/23 05:27:30;;;;;;;14.68;3.00;;;13.70;99.90;;;;;;5051919;28;20207;-60
2022/05/23 05:29:57;;;;;;;20.05;3.00;;;13.80;99.90;;;;;;5051841;28;20720;-59
2022/05/23 05:32:46;;;;;;;23.67;3.60;;;13.80;99.90;;;;;;5051783;28;20303;-60
2022/05/23 05:35:22;;;;;;;17.67;3.22;;;13.80;99.90;;;;;;5051715;28;20231;-59
2022/05/23 05:37:58;;;;;;;19.13;3.20;;;13.90;99.90;;;;;;5051674;28;20181;-59
2022/05/23 05:40:26;;;;;;;22.05;3.80;;;13.90;99.90;;;;;;5051350;28;20165;-59
2022/05/23 05:43:00;;;;;;;22.65;3.25;;;14.00;99.90;;;;;;5051733;28;20173;-59
2022/05/23 05:45:32;;;;;;;17.40;3.45;;;14.00;99.90;;;;;;5051606;28;20698;-59
2022/05/23 05:47:59;;;;;;;19.38;3.30;;;14.10;99.90;;;;;;5051440;28;20200;-58
2022/05/23 05:50:30;;;;;;;21.83;3.33;;;14.20;99.90;;;;;;5051485;28;20165;-59
2022/05/23 05:53:00;;;;;;;15.45;3.10;;;14.20;99.90;;;;;;5051229;28;20217;-59
2022/05/23 05:55:27;;;;;;;16.10;3.05;;;14.30;99.90;;;;;;5050899;28;20602;-59
2022/05/23 05:57:53;;;;;;;18.70;3.22;;;14.30;99.90;;;;;;5050617;28;20169;-58
2022/05/23 06:00:20;;;;;;;17.13;3.60;;;14.40;99.90;;;;;;5050839;28;20600;-59
2022/05/23 06:02:45;;;;;;;14.27;3.30;;;14.40;99.90;;;;;;5050844;28;20169;-58
2022/05/23 06:05:11;;;;;;;11.65;3.22;;;14.50;99.90;;;;;;5050733;28;20252;-56
2022/05/23 06:11:23;;;;;;;13.50;2.97;;;14.60;99.90;;;;;;5050873;28;20180;-57
2022/05/23 06:15:51;;;;;;;16.35;3.47;;;13.00;99.90;;;;;;4478342;23;20731;-57
2022/05/23 06:18:16;;;;;;;16.13;3.38;;;14.60;99.90;;;;;;5011172;28;20213;-57
2022/05/23 06:20:42;;;;;;;12.80;3.70;;;14.60;99.90;;;;;;5010763;28;20698;-57
2022/05/23 06:23:08;;;;;;;20.05;3.75;;;14.70;99.90;;;;;;5011120;28;20274;-57
2022/05/23 06:25:34;;;;;;;17.60;4.00;;;14.70;99.90;;;;;;5010949;28;20174;-57
2022/05/23 06:27:59;;;;;;;20.33;3.88;;;14.60;99.90;;;;;;5011168;28;20564;-57
2022/05/23 06:30:25;;;;;;;18.83;4.05;;;14.60;99.90;;;;;;5010988;28;20524;-57
2022/05/23 06:32:51;;;;;;;14.25;3.65;;;14.60;99.90;;;;;;5010730;28;20214;-57
2022/05/23 06:35:18;;;;;;;18.02;4.45;;;14.50;99.90;;;;;;5010872;28;20202;-58
2022/05/23 06:37:44;;;;;;;17.70;3.72;;;14.50;99.90;;;;;;5011161;28;20175;-58
2022/05/23 06:40:13;;;;;;;23.90;4.65;;;14.40;99.90;;;;;;5010980;28;20190;-58
2022/05/23 06:42:38;;;;;;;29.95;5.20;;;14.40;99.90;;;;;;5010470;28;20178;-58
2022/05/23 06:45:06;;;;;;;16.45;4.15;;;14.40;99.90;;;;;;5010599;28;20185;-58
2022/05/23 06:47:33;;;;;;;17.25;4.20;;;14.50;99.90;;;;;;5010473;28;20170;-59
2022/05/23 06:49:58;;;;;;;18.83;4.53;;;14.60;99.90;;;;;;5010501;28;20170;-59
2022/05/23 06:52:24;;;;;;;15.23;4.65;;;14.60;99.90;;;;;;5010714;28;20206;-59
2022/05/23 06:54:50;;;;;;;16.27;3.90;;;14.70;99.90;;;;;;5010492;28;20245;-59
2022/05/23 06:57:16;;;;;;;19.17;4.15;;;14.60;99.90;;;;;;5010799;28;20174;-58
2022/05/23 06:59:42;;;;;;;19.63;5.22;;;14.70;99.90;;;;;;5010598;28;20163;-56
2022/05/23 07:02:09;;;;;;;22.17;5.05;;;14.70;99.90;;;;;;5010698;28;20806;-57
2022/05/23 07:12:52;;;;;;;13.10;4.30;;;15.00;99.90;;;;;;5010332;28;20221;-68
2022/05/23 07:15:17;;;;;;;17.90;4.18;;;15.00;99.90;;;;;;5010594;28;20170;-67
2022/05/23 07:17:43;;;;;;;15.20;3.85;;;15.20;99.90;;;;;;5010582;28;20225;-68
2022/05/23 07:20:11;;;;;;;16.40;4.03;;;15.40;99.90;;;;;;5010528;28;20257;-69
2022/05/23 07:22:37;;;;;;;13.65;3.35;;;15.60;99.90;;;;;;5011164;28;20236;-72
2022/05/23 07:25:06;;;;;;;14.43;3.63;;;16.20;99.90;;;;;;5010845;28;20170;-71
2022/05/23 07:27:32;;;;;;;15.45;3.58;;;15.60;99.90;;;;;;5010874;28;20179;-71
2022/05/23 07:29:58;;;;;;;13.73;3.00;;;15.80;99.90;;;;;;5013253;28;20653;-58
2022/05/23 07:32:24;;;;;;;12.10;2.78;;;16.10;99.90;;;;;;5014224;28;20215;-59
2022/05/23 07:34:49;;;;;;;17.02;3.33;;;16.10;99.90;;;;;;5014207;28;20636;-58
2022/05/23 07:37:15;;;;;;;7.93;2.38;;;16.00;99.90;;;;;;5014031;28;20182;-57
2022/05/23 07:39:41;;;;;;;8.88;2.65;;;16.10;99.90;;;;;;5014156;28;20268;-57
2022/05/23 07:42:09;;;;;;;16.85;2.95;;;16.10;99.90;;;;;;5013977;28;20170;-58
2022/05/23 07:44:35;;;;;;;10.98;2.70;;;16.00;99.90;;;;;;5013405;28;20185;-58
2022/05/23 07:47:01;;;;;;;8.85;2.60;;;16.10;99.90;;;;;;5013730;28;20735;-58
2022/05/23 07:49:27;;;;;;;13.15;2.80;;;16.00;99.90;;;;;;5013487;28;20261;-65
2022/05/23 07:51:56;;;;;;;12.63;2.70;;;16.00;99.90;;;;;;5013642;28;20719;-58
2022/05/23 08:02:36;;;;;;;8.00;2.30;;;16.40;99.90;;;;;;5013852;28;20189;-69
2022/05/23 08:05:01;;;;;;;7.90;2.47;;;16.30;99.90;;;;;;5013473;28;20171;-57
2022/05/23 08:07:30;;;;;;;7.40;2.30;;;16.60;99.90;;;;;;5004375;28;20555;-64
2022/05/23 08:10:00;;;;;;;10.30;3.20;;;16.60;99.90;;;;;;5003036;28;20635;-65
2022/05/23 08:12:29;;;;;;;10.98;2.72;;;16.50;99.90;;;;;;5013056;28;20214;-57
2022/05/23 08:14:56;;;;;;;6.80;2.63;;;16.90;99.90;;;;;;5013157;28;20171;-62
2022/05/23 08:17:22;;;;;;;8.02;2.70;;;16.80;99.90;;;;;;5012982;28;20222;-58
2022/05/23 08:19:49;;;;;;;11.55;2.40;;;16.80;99.90;;;;;;5012977;28;20178;-58
2022/05/23 08:22:16;;;;;;;8.82;2.97;;;16.80;99.90;;;;;;5013196;28;20489;-58
2022/05/23 08:24:42;;;;;;;10.73;3.50;;;16.70;99.90;;;;;;5013326;28;20624;-58
2022/05/23 08:27:08;;;;;;;9.45;3.38;;;16.70;99.90;;;;;;5012841;28;20258;-58
2022/05/23 08:29:36;;;;;;;10.40;3.15;;;16.90;99.90;;;;;;5012951;28;20207;-58
2022/05/23 08:32:04;;;;;;;11.07;3.17;;;17.00;99.90;;;;;;5013081;28;20210;-59
2022/05/23 08:34:31;;;;;;;7.95;2.90;;;17.10;99.90;;;;;;5011107;28;20269;-59
2022/05/23 08:36:58;;;;;;;7.72;2.65;;;17.30;99.90;;;;;;5012365;28;20171;-60
2022/05/23 08:39:25;;;;;;;8.13;2.95;;;17.70;99.90;;;;;;5012493;28;20171;-57
2022/05/23 08:41:52;;;;;;;7.35;2.22;;;17.90;99.90;;;;;;5012140;28;20184;-58
2022/05/23 08:44:39;;;;;;;6.25;2.38;;;18.00;99.90;;;;;;5012655;28;20166;-59
2022/05/23 08:47:38;;;;;;;9.40;2.80;;;17.90;99.90;;;;;;5012642;28;20225;-59
2022/05/23 08:50:20;;;;;;;7.95;2.70;;;17.60;99.90;;;;;;4997141;28;20208;-58
2022/05/23 08:53:05;;;;;;;7.38;2.92;;;17.60;99.90;;;;;;5003028;28;20215;-58
2022/05/23 08:55:36;;;;;;;11.85;2.75;;;18.00;99.90;;;;;;5002733;28;20429;-59
2022/05/23 08:58:20;;;;;;;9.05;2.80;;;18.10;99.90;;;;;;5002814;28;20174;-60
2022/05/23 09:00:55;;;;;;;8.25;2.83;;;18.00;99.90;;;;;;5012082;28;20166;-59
2022/05/23 09:03:35;;;;;;;13.80;3.28;;;17.80;99.90;;;;;;5012511;28;20186;-58
2022/05/23 09:06:26;;;;;;;10.93;3.70;;;17.60;99.90;;;;;;5012493;28;20179;-59
2022/05/23 09:08:58;;;;;;;12.25;3.22;;;17.90;99.90;;;;;;5012100;28;20178;-58
2022/05/23 09:11:34;;;;;;;10.55;3.10;;;18.00;99.90;;;;;;5012175;28;20583;-59
2022/05/23 09:14:01;;;;;;;7.50;2.85;;;17.70;99.90;;;;;;5012393;28;20249;-58
2022/05/23 09:16:31;;;;;;;13.68;3.10;;;17.90;99.90;;;;;;5012211;28;20340;-59
2022/05/23 09:19:09;;;;;;;7.82;3.17;;;18.10;99.90;;;;;;5012323;28;20182;-66
2022/05/23 09:24:19;;;;;;;8.50;2.95;;;17.70;99.90;;;;;;5011330;28;20197;-67
2022/05/23 09:26:46;;;;;;;7.07;3.05;;;17.60;99.90;;;;;;5011530;28;20637;-73
2022/05/23 09:29:12;;;;;;;7.68;2.85;;;17.70;99.90;;;;;;5011673;28;20229;-63
2022/05/23 09:31:59;;;;;;;9.18;3.35;;;17.70;99.90;;;;;;5011680;28;20386;-63
2022/05/23 09:34:43;;;;;;;10.52;3.53;;;17.30;99.90;;;;;;5011508;28;20174;-63
2022/05/23 09:37:21;;;;;;;10.63;2.72;;;17.40;99.90;;;;;;5011595;28;20633;-63
2022/05/23 09:39:56;;;;;;;11.35;3.10;;;17.20;99.90;;;;;;5011606;28;20178;-62
2022/05/23 09:48:15;;;;;;;7.68;2.83;;;17.30;99.90;;;;;;5011906;28;20629;-62
2022/05/23 09:50:52;;;;;;;6.30;2.70;;;17.20;99.90;;;;;;5011807;28;20206;-63
2022/05/23 09:53:31;;;;;;;10.88;2.72;;;17.20;99.90;;;;;;5011437;28;20694;-62
2022/05/23 09:56:34;;;;;;;14.30;3.10;;;17.30;99.90;;;;;;5011659;28;20266;-61
2022/05/23 09:59:04;;;;;;;16.17;3.33;;;17.70;99.90;;;;;;5011523;28;20174;-62
2022/05/23 10:01:33;;;;;;;12.82;3.28;;;18.00;99.90;;;;;;5009568;28;20250;-62
2022/05/23 10:03:59;;;;;;;11.95;2.58;;;18.20;99.90;;;;;;5009657;28;20594;-63
2022/05/23 10:06:42;;;;;;;13.40;2.67;;;18.20;99.90;;;;;;5009855;28;20178;-63
2022/05/23 10:09:20;;;;;;;10.38;2.15;;;18.00;99.90;;;;;;5009881;28;20184;-60
2022/05/23 10:11:54;;;;;;;10.68;1.90;;;17.70;99.90;;;;;;5009320;28;20225;-61
2022/05/23 10:14:23;;;;;;;11.93;1.63;;;17.40;99.90;;;;;;5009953;28;20178;-62
2022/05/23 10:16:54;;;;;;;6.05;1.48;;;17.20;99.90;;;;;;5010792;28;20229;-62
2022/05/23 10:19:35;;;;;;;12.80;1.75;;;16.90;99.90;;;;;;5011198;28;20186;-62
2022/05/23 10:22:18;;;;;;;7.20;1.42;;;17.00;99.90;;;;;;5011221;28;20186;-61
2022/05/23 10:24:53;;;;;;;11.57;1.60;;;16.90;99.90;;;;;;5011028;28;20159;-63
2022/05/23 10:27:34;;;;;;;16.25;2.30;;;16.90;99.90;;;;;;5011162;28;20197;-62
2022/05/23 10:30:04;;;;;;;13.05;1.42;;;17.10;99.90;;;;;;5011125;28;20167;-62
2022/05/23 10:32:48;;;;;;;9.43;1.50;;;17.10;99.90;;;;;;5010849;28;20221;-61
2022/05/23 10:35:36;;;;;;;4.22;1.10;;;17.40;99.90;;;;;;5011026;28;20202;-62
2022/05/23 10:44:42;;;;;;;3.00;0.98;;;17.70;99.90;;;;;;4986012;28;20232;-63
2022/05/23 10:47:26;;;;;;;4.95;0.90;;;17.80;99.90;;;;;;5011077;28;20167;-62
2022/05/23 10:50:18;;;;;;;4.05;0.75;;;18.00;99.90;;;;;;5010964;28;20177;-62
2022/05/23 10:52:50;;;;;;;5.32;1.13;;;17.60;99.90;;;;;;5010908;28;20220;-62
2022/05/23 10:55:26;;;;;;;8.13;1.60;;;17.50;99.90;;;;;;5011110;28;20163;-63
2022/05/23 10:57:51;;;;;;;6.72;1.40;;;17.60;99.90;;;;;;5011049;28;20174;-62
2022/05/23 11:00:29;;;;;;;7.40;1.40;;;17.70;99.90;;;;;;5011142;28;20633;-62
2022/05/23 11:03:07;;;;;;;9.23;1.38;;;17.70;99.90;;;;;;5010783;28;20664;-63
2022/05/23 11:05:48;;;;;;;17.40;1.75;;;17.20;99.90;;;;;;5014679;28;20175;-64
2022/05/23 11:08:51;;;;;;;14.55;1.58;;;17.40;99.90;;;;;;5014780;28;20178;-64
2022/05/23 11:11:35;;;;;;;13.68;1.38;;;17.40;99.90;;;;;;5014730;28;20629;-62
2022/05/23 11:14:28;;;;;;;9.18;1.35;;;17.20;99.90;;;;;;5014625;28;20194;-62
2022/05/23 11:16:57;;;;;;;8.13;1.40;;;17.60;99.90;;;;;;5014356;28;20226;-63
2022/05/23 11:19:44;;;;;;;8.32;0.95;;;18.00;99.90;;;;;;5014726;28;20179;-62
2022/05/23 11:22:23;;;;;;;8.45;1.23;;;18.00;99.90;;;;;;5014633;28;20175;-63
2022/05/23 11:25:09;;;;;;;13.18;1.23;;;17.60;99.90;;;;;;5014344;28;20174;-63
2022/05/23 11:36:00;;;;;;;11.23;1.50;;;16.20;99.90;;;;;;5014423;28;20189;-62
2022/05/23 11:38:29;;;;;;;10.85;1.33;;;16.20;99.90;;;;;;5014175;28;20228;-62
2022/05/23 11:40:58;;;;;;;8.25;1.08;;;16.20;99.90;;;;;;5014290;28;20189;-62
2022/05/23 11:43:24;;;;;;;12.02;1.63;;;16.10;99.90;;;;;;5014232;28;20281;-62
2022/05/23 11:46:00;;;;;;;12.35;1.27;;;16.20;99.90;;;;;;5014131;28;20182;-62
2022/05/23 11:48:34;;;;;;;8.18;1.48;;;16.40;99.90;;;;;;5014002;28;20158;-63
2022/05/23 11:51:15;;;;;;;12.07;1.20;;;16.50;99.90;;;;;;5014203;28;20182;-61
2022/05/23 11:53:46;;;;;;;12.25;1.85;;;16.50;99.90;;;;;;5014055;28;20532;-62
2022/05/23 11:56:37;;;;;;;4.82;1.02;;;17.00;99.90;;;;;;5013998;28;20253;-62
2022/05/23 11:59:11;;;;;;;7.50;1.10;;;17.50;99.90;;;;;;5013922;28;20202;-62
2022/05/23 12:01:38;;;;;;;10.55;1.55;;;17.70;99.90;;;;;;5013893;28;20167;-62
2022/05/23 12:04:03;;;;;;;7.20;1.17;;;18.20;99.90;;;;;;5013839;28;20185;-62
2022/05/23 12:06:29;;;;;;;6.53;1.15;;;18.00;99.90;;;;;;5013841;28;20238;-62
2022/05/23 12:08:57;;;;;;;9.38;1.30;;;17.80;99.90;;;;;;5013808;28;20174;-62
2022/05/23 12:11:43;;;;;;;8.60;1.30;;;18.50;99.90;;;;;;5013773;28;20216;-62
2022/05/23 12:14:43;;;;;;;9.60;1.30;;;19.30;99.90;;;;;;5013491;28;20546;-62
2022/05/23 12:17:20;;;;;;;6.10;1.05;;;19.90;99.90;;;;;;5013390;28;20218;-62
2022/05/23 12:19:53;;;;;;;5.30;1.13;;;19.70;99.90;;;;;;5013346;28;20182;-61
2022/05/23 12:22:57;;;;;;;9.75;1.23;;;19.20;99.90;;;;;;5012946;28;20175;-61
2022/05/23 12:25:25;;;;;;;8.38;1.40;;;18.70;99.90;;;;;;5013164;28;20178;-62
2022/05/23 12:27:51;;;;;;;12.90;1.60;;;18.90;99.90;;;;;;5013446;28;20177;-61
2022/05/23 12:30:23;;;;;;;5.20;1.08;;;19.00;99.90;;;;;;5013266;28;20538;-62
2022/05/23 12:33:00;;;;;;;12.27;1.55;;;19.00;99.90;;;;;;5013019;28;20238;-62
2022/05/23 12:35:57;;;;;;;9.93;1.67;;;18.80;99.90;;;;;;5012997;28;20173;-62
2022/05/23 12:38:41;;;;;;;7.53;1.42;;;18.50;99.90;;;;;;5013320;28;20252;-61
2022/05/23 12:41:17;;;;;;;7.10;1.42;;;18.60;99.90;;;;;;5013120;28;20185;-62
2022/05/23 12:44:07;;;;;;;7.57;1.48;;;18.50;99.90;;;;;;5013013;28;20170;-61
2022/05/23 12:46:52;;;;;;;6.97;1.40;;;18.10;99.90;;;;;;5013009;28;20206;-61
2022/05/23 12:49:45;;;;;;;6.50;1.52;;;18.30;99.90;;;;;;5012910;28;20170;-62
2022/05/23 12:52:46;;;;;;;10.95;1.67;;;18.40;99.90;;;;;;5012845;28;20213;-61
2022/05/23 12:55:32;;;;;;;9.13;1.58;;;18.10;99.90;;;;;;5012932;28;20237;-61
2022/05/23 12:58:09;;;;;;;6.88;1.50;;;17.80;99.90;;;;;;5012835;28;20179;-61
2022/05/23 13:00:40;;;;;;;8.57;1.92;;;17.80;99.90;;;;;;5012631;28;20170;-61
2022/05/23 13:03:30;;;;;;;10.07;1.83;;;17.50;99.90;;;;;;5012652;28;20630;-61
2022/05/23 13:06:18;;;;;;;4.38;1.67;;;17.40;99.90;;;;;;5011580;28;20189;-61
2022/05/23 13:08:51;;;;;;;9.43;1.63;;;17.20;99.90;;;;;;4989348;28;20191;-60
2022/05/23 13:11:25;;;;;;;9.15;1.73;;;16.80;99.90;;;;;;4999563;28;20190;-61
2022/05/23 13:13:50;;;;;;;10.25;2.00;;;17.00;99.90;;;;;;4993138;28;20182;-62
2022/05/23 13:16:19;;;;;;;8.95;1.48;;;17.10;99.90;;;;;;5008907;28;20325;-66
2022/05/23 13:24:48;;;;;;;9.77;1.60;;;17.10;99.90;;;;;;5012436;28;20250;-69
2022/05/23 13:27:03;;;;;;;9.02;1.80;;;17.40;99.90;;;;;;5011433;28;20174;-70
2022/05/23 13:29:30;;;;;;;7.70;1.23;;;17.70;99.90;;;;;;5011049;28;20248;-70
2022/05/23 13:32:18;;;;;;;7.38;1.17;;;18.20;99.90;;;;;;5011913;28;20218;-71
2022/05/23 13:34:47;;;;;;;11.88;1.52;;;18.50;99.90;;;;;;5011208;28;20191;-70
2022/05/23 13:37:34;;;;;;;6.03;0.88;;;19.10;99.90;;;;;;5011769;28;20194;-71
2022/05/23 13:40:18;;;;;;;4.47;0.90;;;19.40;99.90;;;;;;5011472;28;20187;-69
2022/05/23 13:42:45;;;;;;;8.52;0.90;;;19.70;99.90;;;;;;5012214;28;20178;-71
2022/05/23 13:45:13;;;;;;;6.35;1.05;;;19.50;99.90;;;;;;5011543;28;20194;-71
2022/05/23 13:47:45;;;;;;;4.40;1.17;;;19.40;99.90;;;;;;5011826;28;20167;-69
2022/05/23 13:50:24;;;;;;;4.15;0.98;;;19.30;99.90;;;;;;5011626;28;20175;-68
2022/05/23 13:52:59;;;;;;;8.32;1.30;;;19.20;99.90;;;;;;5011158;28;20297;-69
2022/05/23 13:55:34;;;;;;;4.50;1.42;;;19.00;99.90;;;;;;5011583;28;20212;-69
2022/05/23 13:58:07;;;;;;;7.20;1.20;;;18.60;99.90;;;;;;5011768;28;20276;-70
2022/05/23 14:00:37;;;;;;;6.82;1.13;;;18.40;99.90;;;;;;5011727;28;20163;-71
2022/05/23 14:03:22;;;;;;;5.35;1.33;;;18.20;99.90;;;;;;5011571;28;20181;-71
2022/05/23 14:05:52;;;;;;;6.45;1.10;;;17.80;99.90;;;;;;5011754;28;20221;-69
2022/05/23 14:08:36;;;;;;;7.00;1.38;;;17.80;99.90;;;;;;5011891;28;20645;-71
2022/05/23 14:11:06;;;;;;;5.32;1.23;;;17.90;99.90;;;;;;5011974;28;20170;-71